Flight Track Log - Related Links

Times and Time Zones

All times are in EDT time to prevent confusion due to time zone crossing. See the C-GLTP flight status page for this flight to view local times or setup timezone preferences in your user account.

Time Position Orientation Groundspeed Altitude Reporting Facility
EDT Latitude Longitude Course Direction KTS MPH feet Rate Location/Type
Thu 01:27:40 PM 33.7528 -81.1042 185° South 141 162 3,600  Level Jacksonville Center
Thu 01:28:00 PM 33.6642 -81.1390 185° South  Level FlightAware Approximate
Thu 01:28:40 PM 33.7153 -81.1072 184° South 141 162 4,000  Level Jacksonville Center
Thu 01:29:00 PM 33.6194 -81.1438 185° South  Level FlightAware Approximate
Thu 01:29:40 PM 33.6778 -81.1106 184° South 146 168 4,500  Level Jacksonville Center
Thu 01:30:00 PM 33.5745 -81.1486 185° South  Level FlightAware Approximate
Thu 01:30:40 PM 33.6361 -81.1114 181° South 141 162 5,100  Level Jacksonville Center
Thu 01:31:00 PM 33.5297 -81.1534 185° South  Level FlightAware Approximate
Thu 01:31:40 PM 33.6028 -81.1219 195° South 136 157 5,600  Level Jacksonville Center
Thu 01:32:00 PM 33.4849 -81.1582 185° South  Level FlightAware Approximate
Thu 01:32:40 PM 33.5653 -81.1253 184° South 130 150 6,000  Level Jacksonville Center
Thu 01:33:40 PM 33.5217 -81.1311 186° South 149 171 5,900 -50 Descending Jacksonville Center
Thu 01:34:40 PM 33.4839 -81.1344 184° South 149 171 5,900  Level Jacksonville Center
Thu 01:35:40 PM 33.4403 -81.1428 189° South 155 178 5,900  Level Jacksonville Center
Thu 01:36:40 PM 33.3986 -81.1461 184° South 161 185 5,900  Level Jacksonville Center
Thu 01:37:40 PM 33.3547 -81.1519 186° South 161 185 5,900  Level Jacksonville Center
Thu 01:38:40 PM 33.3131 -81.1578 187° South 161 185 5,900  Level Jacksonville Center
Thu 01:39:40 PM 33.2694 -81.1733 197° South 161 185 5,900  Level Jacksonville Center
Thu 01:40:40 PM 33.2300 -81.1867 196° South 161 185 5,900  Level Jacksonville Center
Thu 01:41:40 PM 33.1906 -81.2047 201° Southwest 161 185 5,900 50 Level Jacksonville Center
Thu 01:42:40 PM 33.1533 -81.2278 207° Southwest 161 185 6,000  Climbing Jacksonville Center
Thu 01:43:40 PM 33.1247 -81.2606 224° Southwest 156 180 5,900 -50 Descending Jacksonville Center
Thu 01:44:40 PM 33.0917 -81.2933 220° Southwest 156 180 5,900  Level Jacksonville Center
Thu 01:45:40 PM 33.0608 -81.3261 222° Southwest 156 180 5,900  Level Jacksonville Center
Thu 01:46:40 PM 33.0297 -81.3589 221° Southwest 156 180 5,900  Level Jacksonville Center
Thu 01:47:40 PM 33.0011 -81.3917 224° Southwest 156 180 5,900  Level Jacksonville Center
Thu 01:48:40 PM 32.9722 -81.4267 225° Southwest 156 180 5,900  Level Jacksonville Center
Thu 01:49:40 PM 32.9392 -81.4544 215° Southwest 156 180 5,900  Level Jacksonville Center
Thu 01:50:40 PM 32.8950 -81.4378 162° South 139 160 5,900  Level Jacksonville Center
Thu 01:51:40 PM 32.8511 -81.4236 165° South 149 171 5,900  Level Jacksonville Center
Thu 01:52:40 PM 32.8092 -81.4094 164° South 156 180 5,900 50 Level Jacksonville Center
Thu 01:53:40 PM 32.7653 -81.3956 165° South 161 185 6,000  Climbing Jacksonville Center
Thu 01:54:40 PM 32.7211 -81.3814 165° South 166 191 5,900  Descending Jacksonville Center
Thu 01:55:40 PM 32.6708 -81.3700 169° South 166 191 6,000 50 Climbing Jacksonville Center
Thu 01:56:40 PM 32.6289 -81.3558 164° South 159 183 6,000  Level Jacksonville Center
Thu 01:57:40 PM 32.5850 -81.3417 165° South 164 189 6,000 150 Level Jacksonville Center
Thu 01:58:40 PM 32.5494 -81.3375 174° South 153 176 6,300 300 Climbing Jacksonville Center
Thu 01:59:40 PM 32.5033 -81.3258 168° South 153 176 6,600 300 Climbing Jacksonville Center
Thu 02:00:40 PM 32.4636 -81.3142 166° South 153 176 6,900 250 Climbing Jacksonville Center
Thu 02:01:40 PM 32.4217 -81.3003 164° South 151 174 7,100 250 Climbing Jacksonville Center
Thu 02:02:40 PM 32.3839 -81.2861 162° South 151 174 7,400 300 Climbing Jacksonville Center
Thu 02:03:40 PM 32.3442 -81.2697 161° South 151 174 7,700 -213 Climbing Jacksonville Center
Thu 02:05:00 PM 32.2902 -81.2476 161° South  Level FlightAware Approximate
Thu 02:12:00 PM 31.9995 -81.1801 179° South  Level FlightAware Approximate
Thu 02:13:00 PM 31.9567 -81.1790 179° South  Level FlightAware Approximate
Thu 02:14:00 PM 31.9139 -81.1779 179° South  Level FlightAware Approximate
Thu 02:15:00 PM 31.8711 -81.1769 179° South  Level FlightAware Approximate
Thu 02:16:00 PM 31.8283 -81.1759 179° South  Level FlightAware Approximate
Thu 02:17:00 PM 31.7848 -81.1826 178° South  Level FlightAware Approximate
Thu 02:18:00 PM 31.7414 -81.1805 178° South  Level FlightAware Approximate
Thu 02:18:40 PM 31.7094 -81.1197 178° South 135 155 4,000  Level Jacksonville Center
Thu 02:19:00 PM 31.6980 -81.1785 178° South  Level FlightAware Approximate
Thu 02:19:40 PM 31.6719 -81.1228 184° South 156 180 4,000  Level Jacksonville Center
Thu 02:20:00 PM 31.6546 -81.1764 178° South  Level FlightAware Approximate
Thu 02:20:40 PM 31.6239 -81.1211 178° South 156 180 4,000  Level Jacksonville Center
Thu 02:21:00 PM 31.6112 -81.1743 178° South  Level FlightAware Approximate
Thu 02:21:40 PM 31.5778 -81.1197 179° South 161 185 3,900  Level Jacksonville Center
Thu 02:22:00 PM 31.5678 -81.1723 178° South  Level FlightAware Approximate
Thu 02:22:40 PM 31.5403 -81.1228 184° South 171 197 3,900  Level Jacksonville Center
Thu 02:23:00 PM 31.5244 -81.1702 178° South  Level FlightAware Approximate
Thu 02:23:40 PM 31.4903 -81.1189 176° South 171 197 3,900  Level Jacksonville Center
Thu 02:24:00 PM 31.4810 -81.1681 178° South  Level FlightAware Approximate
Thu 02:24:40 PM 31.4444 -81.1222 184° South 166 191 3,900  Level Jacksonville Center
Thu 02:25:40 PM 31.3983 -81.1206 178° South 166 191 4,000  Climbing Jacksonville Center
Thu 02:26:40 PM 31.3567 -81.1214 181° South 166 191 3,900 -50 Descending Jacksonville Center
Thu 02:27:40 PM 31.3106 -81.1200 179° South 166 191 3,900  Level Jacksonville Center
Thu 02:28:40 PM 31.2583 -81.1183 178° South 166 191 3,900  Level Jacksonville Center
Thu 02:29:40 PM 31.2147 -81.1192 181° South 172 198 3,900  Level Jacksonville Center
Thu 02:30:40 PM 31.1667 -81.1178 179° South 174 200 3,900  Level Jacksonville Center
Thu 02:31:40 PM 31.1247 -81.1186 181° South 169 194 3,900  Level Jacksonville Center
Thu 02:32:40 PM 31.0747 -81.1194 181° South 174 200 3,900  Level Jacksonville Center
Thu 02:33:40 PM 31.0308 -81.1203 181° South 174 200 3,900  Level Jacksonville Center
Thu 02:34:40 PM 30.9828 -81.1189 179° South 174 200 3,900  Level Jacksonville Center
Thu 02:35:40 PM 30.9369 -81.1197 181° South 174 200 3,900  Level Jacksonville Center
Thu 02:36:40 PM 30.8889 -81.1206 181° South 174 200 3,900  Level Jacksonville Center
Thu 02:36:59 PM 30.8700 -81.1186 175° South 168 193 3,900  Level Jacksonville Center
Thu 02:37:40 PM 30.8408 -81.1192 181° South 180 207 3,900  Level Jacksonville Center
Thu 02:38:40 PM 30.7928 -81.1175 178° South 180 207 3,900  Level Jacksonville Center
Thu 02:39:07 PM 30.7700 -81.1181 181° South 169 194 3,900  Level Jacksonville Center
Thu 02:39:40 PM 30.7489 -81.1208 186° South 175 201 3,900  Level Jacksonville Center
Thu 02:39:55 PM 30.7344 -81.1186 172° South 167 192 3,900  Level Jacksonville Center
Thu 02:40:40 PM 30.7031 -81.1192 181° South 170 196 3,900  Level Jacksonville Center
Thu 02:40:57 PM 30.6864 -81.1169 173° South 168 193 3,900  Level Jacksonville Center
Thu 02:41:40 PM 30.6550 -81.1200 185° South 170 196 3,900  Level Jacksonville Center
Thu 02:41:58 PM 30.6361 -81.1181 175° South 169 194 3,900  Level Jacksonville Center
Thu 02:42:53 PM 30.5925 -81.1189 181° South 169 194 3,900  Level Jacksonville Center
Thu 02:43:40 PM 30.5611 -81.1194 181° South 175 201 3,900  Level Jacksonville Center
Thu 02:44:06 PM 30.5381 -81.1200 181° South 167 192 3,900  Level Jacksonville Center
Thu 02:44:40 PM 30.5172 -81.1178 175° South 175 201 3,900  Level Jacksonville Center
Thu 02:45:07 PM 30.4881 -81.1183 181° South 165 190 3,900  Level Jacksonville Center
Thu 02:45:40 PM 30.4692 -81.1186 181° South 175 201 3,900  Level Jacksonville Center
Thu 02:46:02 PM 30.4464 -81.1192 181° South 164 189 3,900  Level Jacksonville Center
Thu 02:46:40 PM 30.4233 -81.1172 176° South 175 201 3,900  Level Jacksonville Center
Thu 02:47:03 PM 30.4003 -81.1200 186° South 164 189 3,900  Level Jacksonville Center
Thu 02:47:58 PM 30.3586 -81.1208 181° South 164 189 3,900  Level Jacksonville Center
Thu 02:49:05 PM 30.3083 -81.1169 176° South 164 189 3,900  Level Jacksonville Center
Thu 02:50:06 PM 30.2647 -81.1178 181° South 163 188 3,900  Level Jacksonville Center
Thu 02:51:13 PM 30.2103 -81.1164 179° South 166 191 3,900  Level Jacksonville Center
Thu 02:52:14 PM 30.1664 -81.1194 183° South 162 186 3,900  Level Jacksonville Center
Thu 02:53:15 PM 30.1183 -81.1156 176° South 161 185 3,900  Level Jacksonville Center
Thu 02:55:00 PM 30.0418 -81.1159 180° South  Level FlightAware Approximate
Thu 02:55:17 PM 30.0244 -81.1172 180° South 164 189 3,900  Level Jacksonville Center
Thu 02:56:18 PM 29.9806 -81.1181 181° South 161 185 3,900  Level Jacksonville Center
Thu 02:56:45 PM 29.9597 -81.1186 181° South 163 188 3,900  Level Jacksonville Center
Thu 02:57:16 PM 29.9369 -81.1189 181° South 163 188 3,900  Level Jacksonville Center
Thu 02:58:17 PM 29.8908 -81.1172 178° South 164 189 3,900  Level Jacksonville Center
Thu 02:59:18 PM 29.8450 -81.1158 178° South 163 188 3,900  Level Jacksonville Center
Thu 03:00:25 PM 29.7906 -81.1167 181° South 161 185 3,900  Level Jacksonville Center
Thu 03:01:26 PM 29.7469 -81.1175 181° South 163 188 3,900  Level Jacksonville Center
Thu 03:02:27 PM 29.7008 -81.1161 179° South 163 188 3,900  Level Jacksonville Center
Thu 03:03:29 PM 29.6569 -81.1169 181° South 163 188 3,900  Level Jacksonville Center
Thu 03:04:29 PM 29.6069 -81.1178 181° South 162 186 3,900  Level Jacksonville Center
Thu 03:05:24 PM 29.5653 -81.1161 178° South 164 189 3,900  Level Jacksonville Center
Thu 03:06:25 PM 29.5214 -81.1169 181° South 164 189 3,900  Level Jacksonville Center
Thu 03:07:26 PM 29.4756 -81.1178 181° South 162 186 3,900  Level Jacksonville Center
Thu 03:08:26 PM 29.4317 -81.1161 178° South 162 186 3,900  Level Jacksonville Center
Thu 03:09:33 PM 29.3775 -81.1172 181° South 163 188 3,900  Level Jacksonville Center
Thu 03:10:34 PM 29.3336 -81.1181 181° South 164 189 3,900  Level Jacksonville Center
Thu 03:11:29 PM 29.2897 -81.1117 173° South 167 192 3,900  Level Jacksonville Center
Thu 03:12:36 PM 29.2433 -81.0933 161° South 168 193 3,900  Level Jacksonville Center
Thu 03:13:37 PM 29.1994 -81.0775 163° South 167 192 3,900  Level Jacksonville Center
Thu 03:14:38 PM 29.1531 -81.0594 161° South 166 191 3,900  Level Jacksonville Center
Thu 03:15:39 PM 29.1069 -81.0411 161° South 166 191 3,900  Level Jacksonville Center
Thu 03:16:34 PM 29.0714 -81.0275 162° South 165 190 3,900  Level Jacksonville Center
Thu 03:17:35 PM 29.0250 -81.0072 159° South 164 189 3,900  Level Jacksonville Center
Thu 03:19:15 PM 28.9500 -80.9833 164° South 164 189 3,900  Level Orlando TRACON
Thu 03:20:21 PM 28.9000 -80.9500 150° Southeast 163 188 3,900  Level Orlando TRACON
Thu 03:21:21 PM 28.8667 -80.9333 156° South 163 188 3,900  Level Orlando TRACON
Thu 03:22:16 PM 28.8333 -80.9167 156° South 164 189 3,900  Level Orlando TRACON
Thu 03:23:21 PM 28.7833 -80.9000 164° South 167 192 3,900  Level Orlando TRACON
Thu 03:24:21 PM 28.7333 -80.8833 164° South 166 191 3,900  Level Orlando TRACON
Thu 03:25:22 PM 28.6833 -80.8667 164° South 164 189 3,900  Level Orlando TRACON
Thu 03:26:22 PM 28.6500 -80.8500 156° South 163 188 3,900  Level Orlando TRACON
Thu 03:27:22 PM 28.6000 -80.8333 164° South 165 190 3,900  Level Orlando TRACON
Thu 03:28:10 PM 28.5667 -80.8167 156° South 164 189 3,900  Level Orlando TRACON
Thu 03:29:16 PM 28.5167 -80.8000 164° South 166 191 3,900  Level Orlando TRACON
Thu 03:30:17 PM 28.4833 -80.7833 156° South 168 193 3,900  Level Orlando TRACON
Thu 03:31:17 PM 28.4333 -80.7667 164° South 169 194 3,900  Level Orlando TRACON
Thu 03:32:23 PM 28.3833 -80.7500 164° South 168 193 3,900  Level Orlando TRACON
Thu 03:33:23 PM 28.3500 -80.7000 127° Southeast 166 191 3,900  Level Orlando TRACON
Thu 03:34:18 PM 28.3333 -80.6667 120° Southeast 160 184 3,900  Level Orlando TRACON
Thu 03:35:24 PM 28.3000 -80.6333 139° Southeast 177 204 3,900  Level Orlando TRACON
Thu 03:36:18 PM 28.2500 -80.6333 180° South 172 198 3,900  Level Orlando TRACON
Thu 03:37:19 PM 28.2000 -80.6167 164° South 172 198 3,900  Level Orlando TRACON
Thu 03:38:19 PM 28.1667 -80.6167 180° South 170 196 3,900  Level Orlando TRACON
Thu 03:39:19 PM 28.1167 -80.6167 180° South 172 198 3,900  Level Orlando TRACON
Thu 03:40:03 PM 28.0739 -80.6194 183° South 172 198 3,900  Level Miami Center
Thu 03:41:03 PM 28.0283 -80.6108 171° South 186 214 3,900  Level Miami Center
Thu 03:42:03 PM 27.9828 -80.5953 163° South 176 203 3,900  Level Miami Center
Thu 03:43:03 PM 27.9414 -80.5797 162° South 176 203 3,900  Level Miami Center
Thu 03:44:03 PM 27.9042 -80.5692 166° South 171 197 3,900  Level Miami Center
Thu 03:45:03 PM 27.8481 -80.5581 170° South 166 191 3,900  Level Miami Center
Thu 03:46:03 PM 27.8058 -80.5822 207° Southwest 157 181 3,900  Level Miami Center
Thu 03:47:03 PM 27.7633 -80.6044 205° Southwest 169 194 3,900  Level Miami Center
Thu 03:48:03 PM 27.7233 -80.6219 201° Southwest 176 203 3,900  Level Miami Center
Thu 03:49:03 PM 27.6767 -80.6508 209° Southwest 176 203 3,900 -100 Level Miami Center
Thu 03:50:03 PM 27.6361 -80.6775 210° Southwest 176 203 3,700 -350 Descending Miami Center
Thu 03:51:03 PM 27.5894 -80.7064 209° Southwest 182 209 3,200 -500 Descending Miami Center
Thu 03:53:00 PM 27.5100 -80.7422 209° Southwest  Level FlightAware Approximate

Login

Don't have an account? Register now (free) for customized features, flight alerts, and more!